Time;durP1;ratioP1;P1;durP2;ratioP2;P2;SDS_P1;SDS_P2;PMS_P1;PMS_P2;Temp;Humidity;BMP_temperature;BMP_pressure;BME280_temperature;BME280_humidity;BME280_pressure;Samples;Min_cycle;Max_cycle;Signal;HPM_P1;HPM_P2
2021/09/14 00:08:12;;;;;;;20.9;13.6;;;;;;;14.01;100;98803.59;;;;
2021/09/14 00:18:12;;;;;;;16.5;14.4;;;;;;;14.13;100;98800.2;;;;
2021/09/14 00:28:11;;;;;;;16.1;14.6;;;;;;;14.16;100;98800.32;;;;
2021/09/14 00:38:11;;;;;;;12.1;10.9;;;;;;;14.25;100;98803;;;;
2021/09/14 00:48:10;;;;;;;15.6;10.9;;;;;;;14.24;100;98799.5;;;;
2021/09/14 00:58:10;;;;;;;15;13.5;;;;;;;14.16;100;98788.7;;;;
2021/09/14 01:08:09;;;;;;;24.8;17.6;;;;;;;14.15;100;98789.81;;;;
2021/09/14 01:18:09;;;;;;;16.1;14.4;;;;;;;14.1;100;98780.74;;;;
2021/09/14 01:28:09;;;;;;;21.9;15.6;;;;;;;14;100;98789.23;;;;
2021/09/14 01:38:08;;;;;;;17.2;15.4;;;;;;;13.97;100;98792.59;;;;
2021/09/14 01:48:09;;;;;;;15.3;13.7;;;;;;;13.75;100;98794.72;;;;
2021/09/14 01:58:06;;;;;;;21.2;18.6;;;;;;;13.66;100;98794.77;;;;
2021/09/14 02:08:17;;;;;;;21.6;16.6;;;;;;;13.32;100;98797.53;;;;
2021/09/14 03:08:02;;;;;;;11.5;8.8;;;;;;;12.26;100;98787.97;;;;
2021/09/14 03:18:01;;;;;;;16;9.5;;;;;;;12.13;100;98799.69;;;;
2021/09/14 03:28:00;;;;;;;14.5;10.7;;;;;;;11.99;100;98791.69;;;;
2021/09/14 03:37:59;;;;;;;14.3;12.3;;;;;;;11.85;100;98779.38;;;;
2021/09/14 03:47:58;;;;;;;15.8;13.4;;;;;;;11.73;100;98781.88;;;;
2021/09/14 03:57:58;;;;;;;14.6;12.5;;;;;;;11.67;100;98786.57;;;;
2021/09/14 04:08:49;;;;;;;19.3;14.4;;;;;;;11.7;100;98794.05;;;;
2021/09/14 04:17:56;;;;;;;19.5;16.9;;;;;;;11.89;100;98794.67;;;;
2021/09/14 04:27:55;;;;;;;17.3;15.5;;;;;;;11.99;100;98807.09;;;;
2021/09/14 04:37:55;;;;;;;21.1;16.7;;;;;;;12;100;98803.3;;;;
2021/09/14 04:47:54;;;;;;;19;16.3;;;;;;;12.04;100;98823.95;;;;
2021/09/14 04:57:53;;;;;;;20.1;16.2;;;;;;;12.16;100;98817.17;;;;
2021/09/14 05:07:52;;;;;;;18.8;16.1;;;;;;;12.2;100;98824.36;;;;
2021/09/14 05:17:51;;;;;;;21.4;13.5;;;;;;;12.47;100;98842.25;;;;
2021/09/14 05:27:51;;;;;;;18.3;13.2;;;;;;;12.59;100;98845.17;;;;
2021/09/14 05:37:50;;;;;;;14.8;12.7;;;;;;;13.16;100;98845.11;;;;
2021/09/14 05:47:49;;;;;;;17.1;14.4;;;;;;;13.58;100;98844.31;;;;
2021/09/14 05:57:49;;;;;;;18.6;16.6;;;;;;;14.01;100;98845.03;;;;
2021/09/14 06:07:48;;;;;;;20.2;15.4;;;;;;;14.45;100;98846.48;;;;
2021/09/14 06:17:48;;;;;;;18.5;15;;;;;;;14.8;100;98846.3;;;;
2021/09/14 06:27:47;;;;;;;32.9;15.6;;;;;;;15.13;100;98854.56;;;;
2021/09/14 06:37:47;;;;;;;26.6;16.9;;;;;;;15.58;100;98858.22;;;;
2021/09/14 06:47:47;;;;;;;19.3;14.1;;;;;;;15.68;100;98867.88;;;;
2021/09/14 06:57:46;;;;;;;16.1;14.4;;;;;;;16.09;100;98860.41;;;;
2021/09/14 07:07:46;;;;;;;19.4;14.3;;;;;;;16.43;100;98852.97;;;;
2021/09/14 07:17:45;;;;;;;20.2;13.6;;;;;;;16.85;100;98859.02;;;;
2021/09/14 07:27:45;;;;;;;20.3;16;;;;;;;17.19;100;98874.05;;;;
2021/09/14 07:37:45;;;;;;;16.6;14.6;;;;;;;17.38;100;98882.41;;;;
2021/09/14 07:47:45;;;;;;;29.5;19.3;;;;;;;17.89;100;98884.3;;;;
2021/09/14 07:57:45;;;;;;;19.7;16.4;;;;;;;18.17;100;98886.2;;;;
2021/09/14 08:07:45;;;;;;;22;19.6;;;;;;;18.59;100;98884.59;;;;
2021/09/14 08:17:45;;;;;;;23.8;19.2;;;;;;;19.03;100;98891.49;;;;
2021/09/14 08:27:45;;;;;;;21.8;15.3;;;;;;;19.55;100;98891.1;;;;
2021/09/14 08:37:45;;;;;;;25.1;17.5;;;;;;;19.89;100;98878.49;;;;
2021/09/14 08:47:45;;;;;;;18.7;14.2;;;;;;;20.43;100;98878.35;;;;
2021/09/14 08:57:45;;;;;;;13.7;9;;;;;;;20.93;100;98879.16;;;;
2021/09/14 09:07:46;;;;;;;18.2;9.4;;;;;;;21.38;100;98881.01;;;;
2021/09/14 09:17:46;;;;;;;12.6;8.6;;;;;;;21.38;100;98886.49;;;;
2021/09/14 09:27:46;;;;;;;15.5;8.8;;;;;;;21.17;100;98886.98;;;;
2021/09/14 09:37:47;;;;;;;10.6;7.5;;;;;;;20.98;100;98889.8;;;;
2021/09/14 09:47:47;;;;;;;12.7;7.6;;;;;;;21.34;100;98891.13;;;;
2021/09/14 09:57:47;;;;;;;10;7;;;;;;;21.94;100;98887.2;;;;
2021/09/14 10:07:48;;;;;;;11.3;7.9;;;;;;;22;100;98885.72;;;;
2021/09/14 10:17:56;;;;;;;10.3;5.6;;;;;;;21.92;100;98878.56;;;;
2021/09/14 10:37:52;;;;;;;8.7;6.4;;;;;;;22.44;100;98866.53;;;;
2021/09/14 10:47:50;;;;;;;20.4;6.8;;;;;;;22.73;100;98870.34;;;;
2021/09/14 10:57:51;;;;;;;10.6;6.2;;;;;;;22.92;100;98874.78;;;;
2021/09/14 11:07:51;;;;;;;7.4;4.8;;;;;;;23.25;100;98865.58;;;;
2021/09/14 11:17:55;;;;;;;11.4;6.1;;;;;;;23.33;98.68945;98856.17;;;;
2021/09/14 11:28:01;;;;;;;9.5;5.2;;;;;;;23.63;92.94043;98861.47;;;;
2021/09/14 11:37:53;;;;;;;10.1;5.6;;;;;;;23.4;79.89551;98839.7;;;;
2021/09/14 11:47:54;;;;;;;8.6;5.7;;;;;;;23.8;79.62012;98845.02;;;;
2021/09/14 11:57:55;;;;;;;7.5;4.4;;;;;;;24.29;78.9375;98838.85;;;;
2021/09/14 12:07:55;;;;;;;11.1;7;;;;;;;24.11;83.34375;98837.21;;;;
2021/09/14 12:17:56;;;;;;;12.8;5.6;;;;;;;24.28;80.76172;98836.47;;;;
2021/09/14 12:27:57;;;;;;;12.4;6.2;;;;;;;24.1;82.34473;98830.91;;;;
2021/09/14 12:37:58;;;;;;;9.6;7.8;;;;;;;23.7;86.85254;98825.71;;;;
2021/09/14 12:47:58;;;;;;;14.8;7;;;;;;;23.55;89.00293;98814.66;;;;
2021/09/14 12:57:59;;;;;;;17;8;;;;;;;23.01;95.34473;98804.55;;;;
2021/09/14 13:08:00;;;;;;;11.9;7.4;;;;;;;23.41;93.13965;98808.31;;;;
2021/09/14 13:18:00;;;;;;;9.8;6.8;;;;;;;23.92;91.3916;98800.59;;;;
2021/09/14 13:28:01;;;;;;;11.8;6.6;;;;;;;23.47;90.27148;98801.25;;;;
2021/09/14 13:38:02;;;;;;;9.8;6.5;;;;;;;23.52;87.02734;98803.64;;;;
2021/09/14 13:48:03;;;;;;;14;8.2;;;;;;;23.67;92.01074;98787.97;;;;
2021/09/14 13:58:03;;;;;;;10.8;6.4;;;;;;;23.54;92.74902;98779.27;;;;
2021/09/14 14:08:04;;;;;;;12.4;6.7;;;;;;;24.11;83.46191;98780.17;;;;
2021/09/14 14:18:05;;;;;;;11.5;8.1;;;;;;;23.7;91.08105;98765.16;;;;
2021/09/14 14:28:05;;;;;;;8.6;7;;;;;;;23.64;87.18848;98755.72;;;;
2021/09/14 14:38:06;;;;;;;10.2;6.5;;;;;;;23.87;88.06836;98758.91;;;;
2021/09/14 14:48:08;;;;;;;13.6;6.9;;;;;;;23.58;89.41211;98751.75;;;;
2021/09/14 14:58:07;;;;;;;10.2;7.8;;;;;;;23.63;88.9707;98751.39;;;;
2021/09/14 15:08:08;;;;;;;14;7.2;;;;;;;23.34;87.89551;98755.98;;;;
2021/09/14 15:18:09;;;;;;;9.8;7.2;;;;;;;24.38;86.53125;98761.3;;;;
2021/09/14 15:28:11;;;;;;;12.2;6.2;;;;;;;25.59;82.12598;98772.81;;;;
2021/09/14 15:38:10;;;;;;;11.2;7.9;;;;;;;25.89;80.10547;98779.33;;;;
2021/09/14 15:48:11;;;;;;;19;7;;;;;;;25.39;81.64844;98773.28;;;;
2021/09/14 15:58:13;;;;;;;9.9;7;;;;;;;24.33;87.93848;98778.24;;;;
2021/09/14 16:08:14;;;;;;;7.9;5.2;;;;;;;23.88;90.0293;98794.28;;;;
2021/09/14 16:18:14;;;;;;;10.9;6.5;;;;;;;23.27;92.52051;98803.5;;;;
2021/09/14 16:28:15;;;;;;;13.8;7.9;;;;;;;22.62;95.28418;98800.75;;;;
2021/09/14 16:38:16;;;;;;;10.9;6.8;;;;;;;21.54;100;98793.83;;;;
2021/09/14 16:48:16;;;;;;;9.9;6.2;;;;;;;20.46;100;98789.2;;;;
2021/09/14 16:58:17;;;;;;;10.5;5.9;;;;;;;19.64;100;98792.46;;;;
2021/09/14 17:08:17;;;;;;;10.7;7;;;;;;;19.01;100;98779.06;;;;
2021/09/14 17:18:17;;;;;;;13.7;8.4;;;;;;;18.57;100;98789.38;;;;
2021/09/14 17:28:18;;;;;;;9.9;7.8;;;;;;;18.04;100;98799;;;;
2021/09/14 17:38:17;;;;;;;13.6;10.7;;;;;;;17.72;100;98802.81;;;;
2021/09/14 17:48:18;;;;;;;24.1;17.5;;;;;;;17.35;100;98806.83;;;;
2021/09/14 17:58:17;;;;;;;41.3;34.4;;;;;;;17.03;100;98805.89;;;;
2021/09/14 18:08:17;;;;;;;29.9;26.6;;;;;;;16.74;100;98812.41;;;;
2021/09/14 18:18:17;;;;;;;32;26;;;;;;;16.49;100;98813.52;;;;
2021/09/14 18:28:17;;;;;;;27.2;21.5;;;;;;;16.3;100;98814.09;;;;
2021/09/14 18:38:16;;;;;;;59.5;50.1;;;;;;;16.1;100;98820.42;;;;
2021/09/14 18:48:16;;;;;;;32.7;27;;;;;;;15.89;100;98819.7;;;;
2021/09/14 18:58:16;;;;;;;16.8;15.1;;;;;;;15.71;100;98821.8;;;;
2021/09/14 19:08:15;;;;;;;18.6;14.5;;;;;;;15.52;100;98821.49;;;;
2021/09/14 19:18:15;;;;;;;23.5;15.3;;;;;;;15.38;100;98824.47;;;;
2021/09/14 19:28:14;;;;;;;15.2;13.6;;;;;;;15.22;100;98836.27;;;;
2021/09/14 19:38:14;;;;;;;12.9;11.5;;;;;;;15.09;100;98838.13;;;;
2021/09/14 19:48:13;;;;;;;18.3;15.9;;;;;;;14.91;100;98823.09;;;;
2021/09/14 19:58:13;;;;;;;18.6;12.2;;;;;;;14.78;100;98830.36;;;;
2021/09/14 20:08:13;;;;;;;16.4;11.3;;;;;;;14.61;100;98823.09;;;;
2021/09/14 20:18:12;;;;;;;17;14.7;;;;;;;14.38;100;98821.8;;;;
2021/09/14 20:28:12;;;;;;;15.6;12.4;;;;;;;14.1;100;98815.98;;;;
2021/09/14 20:38:11;;;;;;;16.1;12.8;;;;;;;13.85;100;98818.79;;;;
2021/09/14 20:48:10;;;;;;;16.6;13.5;;;;;;;13.58;100;98817.23;;;;
2021/09/14 20:58:10;;;;;;;14.4;11.4;;;;;;;13.31;100;98815.67;;;;
2021/09/14 21:08:09;;;;;;;15.2;11;;;;;;;13.08;100;98823.11;;;;
2021/09/14 21:18:08;;;;;;;12.6;11.3;;;;;;;12.88;100;98822.94;;;;
2021/09/14 21:28:08;;;;;;;14;10.4;;;;;;;12.71;100;98810.19;;;;
2021/09/14 21:38:07;;;;;;;15.9;12.1;;;;;;;12.65;100;98816.06;;;;
2021/09/14 21:48:06;;;;;;;17.2;12.8;;;;;;;12.47;100;98807.91;;;;
2021/09/14 21:58:05;;;;;;;15.3;13.3;;;;;;;12.4;100;98807.57;;;;
2021/09/14 22:08:05;;;;;;;16.1;13.2;;;;;;;12.29;100;98802.75;;;;
2021/09/14 22:18:04;;;;;;;17.4;12.4;;;;;;;12.17;100;98806.07;;;;
2021/09/14 22:28:03;;;;;;;18.8;12.8;;;;;;;12.06;100;98794.74;;;;
2021/09/14 22:38:02;;;;;;;18;14.4;;;;;;;11.97;100;98793.13;;;;
2021/09/14 22:48:02;;;;;;;29.8;15.3;;;;;;;11.88;100;98793.06;;;;
2021/09/14 22:58:01;;;;;;;22.6;15.9;;;;;;;11.78;100;98796.03;;;;
2021/09/14 23:08:01;;;;;;;19.6;15.3;;;;;;;11.69;100;98797.07;;;;
2021/09/14 23:18:00;;;;;;;16.3;14.6;;;;;;;11.56;100;98804.13;;;;
2021/09/14 23:27:59;;;;;;;16.8;13.4;;;;;;;11.44;100;98795.8;;;;
2021/09/14 23:37:58;;;;;;;18.1;16.1;;;;;;;11.44;100;98787.7;;;;
2021/09/14 23:47:57;;;;;;;20.7;16.3;;;;;;;11.38;100;98778.16;;;;
2021/09/14 23:57:56;;;;;;;13.3;12;;;;;;;11.26;100;98775.2;;;;
